Sedov — UELO — position and weather

sailwx.info

Track history (hours):
 
Tides and Currents Weather Stations Pressure Air Temp Water Temp Dewpoint Dewpoint Depression Visibility Wind Speed Wind Dir Waves Ship Positions

Sedov (Russia)

Last reported at 2015-Aug-25 19:34 UTC. Time now 2015-Sep-02 04:25 UTC.
Position N 50°11' W 003°03'.

Length 118 m; draft 6.6 m.

Type: Pleasure craft. MMSI: 273510000.

Date/timePositionNaut miles runAvg speedWind from/ knotsBaromVisibWave heightAir tempDewpointWater temp
2015-Aug-25 19:34N 50°11' W 003°03'5 5.0
2015-Aug-25 18:33N 50°13' W 002°56'5 5.3
2015-Aug-25 17:34N 50°12' W 002°48'5 4.7
2015-Aug-25 16:33N 50°12' W 002°40'120 5.7
2015-Aug-24 19:30N 50°36' E 000°23'7 7.2
2015-Aug-24 18:33N 50°38' E 000°34'8 8.0
2015-Aug-24 17:33N 50°43' E 000°44'8 8.1
2015-Aug-24 16:33N 50°47' E 000°55'8 8.3
2015-Aug-24 15:33N 50°52' E 001°05'10 8.8
2015-Aug-24 14:26N 50°59' E 001°17'910.1
2015-Aug-24 13:33N 51°04' E 001°28'1010.5
2015-Aug-24 12:33N 51°11' E 001°41'10 9.6
2015-Aug-24 11:33N 51°19' E 001°50'9 8.7
2015-Aug-24 10:33N 51°26' E 001°57'8 8.1
2015-Aug-24 09:33N 51°33' E 002°04'8 8.1
2015-Aug-24 08:33N 51°39' E 002°13'8 8.1
2015-Aug-24 07:33N 51°45' E 002°22'11 8.2
2015-Aug-24 06:14N 51°53' E 002°34'6 8.6
2015-Aug-24 05:30N 51°58' E 002°40'55 8.8
2015-Aug-23 23:16N 52°31' E 003°51'6 8.3
2015-Aug-23 22:33N 52°31' E 004°01'8 7.7
2015-Aug-23 21:33N 52°31' E 004°14'8 8.4
2015-Aug-23 20:33N 52°30' E 004°27'6 5.5
2015-Aug-23 19:33N 52°28' E 004°36'1 0.6
2015-Aug-23 18:33N 52°28' E 004°37'1 0.7
2015-Aug-23 17:33N 52°28' E 004°38'5 4.6
2015-Aug-23 16:34N 52°26' E 004°45'5 5.1
2015-Aug-23 15:33N 52°24' E 004°53'2 2.3
2015-Aug-23 14:33N 52°23' E 004°55'0 0.1
2015-Aug-23 13:32N 52°23' E 004°56'0 0.0
2015-Aug-23 12:32N 52°23' E 004°56'0 0.0
2015-Aug-23 11:32N 52°23' E 004°56'0 0.0
2015-Aug-23 10:32N 52°23' E 004°56'0 0.0
2015-Aug-23 09:32N 52°23' E 004°56'0 0.0
2015-Aug-23 08:30N 52°23' E 004°56'0 0.0
2015-Aug-23 07:30N 52°23' E 004°56'0 0.0
2015-Aug-23 06:33N 52°23' E 004°56'0 0.0
2015-Aug-23 05:32N 52°23' E 004°56'0 0.0
2015-Aug-23 04:29N 52°23' E 004°56'0 0.0
2015-Aug-23 03:32N 52°23' E 004°56'0 0.0
2015-Aug-23 02:32N 52°23' E 004°56'0 0.0
2015-Aug-23 01:32N 52°23' E 004°56'0 0.0
2015-Aug-23 00:32N 52°23' E 004°56'0 0.0
2015-Aug-22 23:32N 52°23' E 004°56'0 0.0
2015-Aug-22 22:32N 52°23' E 004°56'0 0.0
2015-Aug-22 21:32N 52°23' E 004°56'0 0.0
2015-Aug-22 20:32N 52°23' E 004°56'0 0.0
2015-Aug-22 19:32N 52°23' E 004°56'0 0.0
2015-Aug-22 18:32N 52°23' E 004°56'0 0.0
2015-Aug-22 17:32N 52°23' E 004°56'0 0.0
2015-Aug-22 16:32N 52°23' E 004°56'0 0.0
2015-Aug-22 15:29N 52°23' E 004°56'0 0.0
2015-Aug-22 14:32N 52°23' E 004°56'0 0.0
2015-Aug-22 13:32N 52°23' E 004°56'0 0.0
2015-Aug-22 12:32N 52°23' E 004°56'0 0.0
2015-Aug-22 11:29N 52°23' E 004°56'0 0.0
2015-Aug-22 10:32N 52°23' E 004°56'0 0.0
2015-Aug-22 09:32N 52°23' E 004°56'0 0.0
2015-Aug-22 08:32N 52°23' E 004°56'0 0.0
2015-Aug-22 07:32N 52°23' E 004°56'0 0.0
2015-Aug-22 06:31N 52°23' E 004°56'0 0.0
2015-Aug-22 05:31N 52°23' E 004°56'0 0.0
2015-Aug-22 04:31N 52°23' E 004°56'0 0.0
2015-Aug-22 03:31N 52°23' E 004°56'0 0.0
2015-Aug-22 02:31N 52°23' E 004°56'0 0.0
2015-Aug-22 01:31N 52°23' E 004°56'0 0.0
2015-Aug-22 00:31N 52°23' E 004°56'0 0.0
2015-Aug-21 23:31N 52°23' E 004°56'0 0.0
2015-Aug-21 22:31N 52°23' E 004°56'0 0.0
2015-Aug-21 21:31N 52°23' E 004°56'0 0.0
2015-Aug-21 20:31N 52°23' E 004°56'0 0.0
2015-Aug-21 19:31N 52°23' E 004°56'0 0.0
2015-Aug-21 18:33N 52°23' E 004°56'0 0.0
2015-Aug-21 17:33N 52°23' E 004°56'0 0.0
2015-Aug-21 16:33N 52°23' E 004°56'0 0.0
2015-Aug-21 15:33N 52°23' E 004°56'0 0.0
2015-Aug-21 14:33N 52°23' E 004°56'0 0.0
2015-Aug-21 13:30N 52°23' E 004°56'0 0.0
2015-Aug-21 12:33N 52°23' E 004°56'0 0.0
2015-Aug-21 11:33N 52°23' E 004°56'0 0.0
2015-Aug-21 10:33N 52°23' E 004°56'0 0.0
2015-Aug-21 09:31N 52°23' E 004°56'0 0.0
2015-Aug-21 08:33N 52°23' E 004°56'0 0.0
2015-Aug-21 07:34N 52°23' E 004°56'0 0.0
2015-Aug-21 06:34N 52°23' E 004°56'0 0.0
2015-Aug-21 05:33N 52°23' E 004°56'0 0.0
2015-Aug-21 04:33N 52°23' E 004°56'0 0.0
2015-Aug-21 03:33N 52°23' E 004°56'0 0.0
2015-Aug-21 02:34N 52°23' E 004°56'0 0.0
2015-Aug-21 01:33N 52°23' E 004°56'0 0.0
2015-Aug-21 00:34N 52°23' E 004°56'0 0.0
2015-Aug-20 23:33N 52°23' E 004°56'0 0.0
2015-Aug-20 22:33N 52°23' E 004°56'0 0.0
2015-Aug-20 21:34N 52°23' E 004°56'0 0.0
2015-Aug-20 20:34N 52°23' E 004°56'0 0.0
2015-Aug-20 19:34N 52°23' E 004°56'0 0.0
2015-Aug-20 18:33N 52°23' E 004°56'0 0.0
2015-Aug-20 17:33N 52°23' E 004°56'0 0.0
2015-Aug-20 16:34N 52°23' E 004°56'0 0.0
2015-Aug-20 15:34N 52°23' E 004°56'0 0.0
2015-Aug-20 14:34N 52°23' E 004°56'0 0.0
2015-Aug-20 13:34N 52°23' E 004°56'0 0.0
2015-Aug-20 12:34N 52°23' E 004°56'0 0.0
2015-Aug-20 11:34N 52°23' E 004°56'0 0.0
2015-Aug-20 10:33N 52°23' E 004°56'0 0.0
2015-Aug-20 09:33N 52°23' E 004°56'0 0.0
2015-Aug-20 08:33N 52°23' E 004°56'0 0.0
2015-Aug-20 07:34N 52°23' E 004°56'0 0.0
2015-Aug-20 06:34N 52°23' E 004°56'0 0.0
2015-Aug-20 05:34N 52°23' E 004°56'0 0.0
2015-Aug-20 04:34N 52°23' E 004°56'0 0.0
2015-Aug-20 03:34N 52°23' E 004°56'0 0.0
2015-Aug-20 02:34N 52°23' E 004°56'0 0.0
2015-Aug-20 01:34N 52°23' E 004°56'0 0.0
2015-Aug-20 00:34N 52°23' E 004°56'0 0.0
2015-Aug-19 23:34N 52°23' E 004°56'0 0.0
2015-Aug-19 22:31N 52°23' E 004°56'0 0.0
2015-Aug-19 21:34N 52°23' E 004°56'0 0.0
2015-Aug-19 20:34N 52°23' E 004°56'0 0.0
2015-Aug-19 19:30N 52°23' E 004°56'0 0.0
2015-Aug-19 18:34N 52°23' E 004°56'0 0.0
2015-Aug-19 17:33N 52°23' E 004°56'0 0.0
2015-Aug-19 16:34N 52°23' E 004°56'0 0.0
2015-Aug-19 15:34N 52°23' E 004°56'2 2.0
2015-Aug-19 14:33N 52°24' E 004°53'3 3.4
2015-Aug-19 13:33N 52°25' E 004°48'4 3.6
2015-Aug-19 12:33N 52°26' E 004°42'3 3.0
2015-Aug-19 11:33N 52°28' E 004°38'1 1.2
2015-Aug-19 10:33N 52°28' E 004°36'1 0.7
2015-Aug-19 09:33N 52°28' E 004°35'0 0.2
2015-Aug-19 08:33N 52°28' E 004°35'0 0.0
2015-Aug-19 07:33N 52°28' E 004°35'0 0.0
2015-Aug-19 06:33N 52°28' E 004°35'0 0.0
2015-Aug-19 05:30N 52°28' E 004°35'0 0.0
2015-Aug-19 04:30N 52°28' E 004°35'0 0.0
2015-Aug-19 03:33N 52°28' E 004°35'0 0.0
2015-Aug-19 02:33N 52°28' E 004°35'0 0.0
2015-Aug-19 01:33N 52°28' E 004°35'0 0.0
2015-Aug-19 00:33N 52°28' E 004°35'0 0.0
2015-Aug-18 23:33N 52°28' E 004°35'0 0.0
2015-Aug-18 22:33N 52°28' E 004°35'0 0.0
2015-Aug-18 21:33N 52°28' E 004°35'0 0.0
2015-Aug-18 20:33N 52°28' E 004°35'0 0.0
2015-Aug-18 19:33N 52°28' E 004°35'0 0.0
2015-Aug-18 18:33N 52°28' E 004°35'0 0.0
2015-Aug-18 17:32N 52°28' E 004°35'0 0.0
2015-Aug-18 16:32N 52°28' E 004°35'3 3.0
2015-Aug-18 15:34N 52°28' E 004°30'8 8.0
2015-Aug-18 14:34N 52°28' E 004°17'6 6.0
2015-Aug-18 13:32N 52°28' E 004°07'0 0.1
2015-Aug-18 12:33N 52°28' E 004°07'0 0.1
2015-Aug-18 11:27N 52°28' E 004°07'0 0.0
2015-Aug-18 10:33N 52°28' E 004°07'0 0.0
2015-Aug-18 09:33N 52°28' E 004°07'0 0.0
2015-Aug-18 08:30N 52°28' E 004°07'0 0.0
2015-Aug-18 07:33N 52°28' E 004°07'0 0.0
2015-Aug-18 06:33N 52°28' E 004°07'0 0.0
2015-Aug-18 05:33N 52°28' E 004°07'0 0.0
2015-Aug-18 04:33N 52°28' E 004°07'0 0.0
2015-Aug-18 04:09N 52°28' E 004°07'0 0.0
2015-Aug-18 03:33N 52°28' E 004°07'0 0.1
2015-Aug-18 02:33N 52°28' E 004°07'0 0.0
2015-Aug-18 01:33N 52°28' E 004°07'0 0.0
2015-Aug-18 00:33N 52°28' E 004°07'0 0.0
2015-Aug-17 23:33N 52°27' E 004°07'1 0.8
2015-Aug-17 22:33N 52°28' E 004°08'1010.0
2015-Aug-17 21:33N 52°38' E 004°04'1010.3
2015-Aug-17 20:33N 52°48' E 003°59'9 8.7
2015-Aug-17 19:33N 52°56' E 004°01'8 7.7
2015-Aug-17 18:33N 53°03' E 004°07'6 6.2
2015-Aug-17 17:33N 53°06' E 004°16'5 4.7
2015-Aug-17 16:28N 53°09' E 004°23'12 5.9
2015-Aug-17 14:26N 53°20' E 004°31'7 7.9
2015-Aug-17 13:30N 53°27' E 004°35'9 9.7
2015-Aug-17 12:33N 53°31' E 004°49'8 8.1
2015-Aug-17 11:33N 53°33' E 005°02'6 6.0
2015-Aug-17 10:33N 53°36' E 005°12'7 7.2
2015-Aug-17 09:32N 53°38' E 005°23'5 5.1
2015-Aug-17 08:33N 53°40' E 005°31'5 5.3
2015-Aug-17 07:33N 53°41' E 005°40'6 5.7
2015-Aug-17 06:33N 53°43' E 005°49'8 7.8
2015-Aug-17 05:30N 53°46' E 006°02'42 8.5
2015-Aug-17 00:33N 53°57' E 007°11'8 7.6
2015-Aug-16 23:33N 53°58' E 007°23'7 7.3
2015-Aug-16 22:33N 53°60' E 007°35'6 5.5
2015-Aug-16 21:32N 53°56' E 007°43'5 5.6
2015-Aug-16 20:33N 53°52' E 007°50'6 6.3
2015-Aug-16 19:33N 53°51' E 008°00'7 6.9
2015-Aug-16 18:33N 53°47' E 008°09'8 8.4
2015-Aug-16 17:33N 53°42' E 008°20'10 9.8
2015-Aug-16 16:34N 53°35' E 008°32'2 2.3
2015-Aug-16 15:33N 53°33' E 008°34'0 0.0
2015-Aug-16 14:33N 53°33' E 008°34'0 0.0
2015-Aug-16 13:30N 53°33' E 008°34'0 0.0
2015-Aug-16 12:33N 53°33' E 008°34'0 0.0
2015-Aug-16 11:30N 53°33' E 008°34'0 0.0
2015-Aug-16 10:30N 53°33' E 008°34'0 0.0
2015-Aug-16 09:33N 53°33' E 008°34'0 0.0
2015-Aug-16 08:33N 53°33' E 008°34'0 0.0
2015-Aug-16 07:33N 53°33' E 008°34'0 0.0
2015-Aug-16 06:33N 53°33' E 008°34'0 0.0
2015-Aug-16 05:33N 53°33' E 008°34'0 0.0
2015-Aug-16 04:33N 53°33' E 008°34'0 0.0
2015-Aug-16 03:33N 53°33' E 008°34'0 0.0
2015-Aug-16 02:33N 53°33' E 008°34'0 0.0
2015-Aug-16 01:33N 53°33' E 008°34'0 0.0
2015-Aug-16 00:33N 53°33' E 008°34'0 0.0
2015-Aug-15 23:33N 53°33' E 008°34'0 0.0
2015-Aug-15 22:33N 53°33' E 008°34'0 0.0
2015-Aug-15 21:33N 53°33' E 008°34'0 0.0
2015-Aug-15 20:30N 53°33' E 008°34'  
Track history (hours):
 
Tides and Currents Weather Stations Pressure Air Temp Water Temp Dewpoint Dewpoint Depression Visibility Wind Speed Wind Dir Waves Ship Positions

Sedov (Russia)

Last reported at 2015-Aug-25 19:34 UTC. Time now 2015-Sep-02 04:25 UTC.
Position N 50°11' W 003°03'.

Length 118 m; draft 6.6 m.

Type: Pleasure craft. MMSI: 273510000.

Date/timePositionNaut miles runAvg speedWind from/ knotsBaromVisibWave heightAir tempDewpointWater temp
2015-Aug-25 19:34N 50°11' W 003°03'5 5.0
2015-Aug-25 18:33N 50°13' W 002°56'5 5.3
2015-Aug-25 17:34N 50°12' W 002°48'5 4.7
2015-Aug-25 16:33N 50°12' W 002°40'120 5.7
2015-Aug-24 19:30N 50°36' E 000°23'7 7.2
2015-Aug-24 18:33N 50°38' E 000°34'8 8.0
2015-Aug-24 17:33N 50°43' E 000°44'8 8.1
2015-Aug-24 16:33N 50°47' E 000°55'8 8.3
2015-Aug-24 15:33N 50°52' E 001°05'10 8.8
2015-Aug-24 14:26N 50°59' E 001°17'910.1
2015-Aug-24 13:33N 51°04' E 001°28'1010.5
2015-Aug-24 12:33N 51°11' E 001°41'10 9.6
2015-Aug-24 11:33N 51°19' E 001°50'9 8.7
2015-Aug-24 10:33N 51°26' E 001°57'8 8.1
2015-Aug-24 09:33N 51°33' E 002°04'8 8.1
2015-Aug-24 08:33N 51°39' E 002°13'8 8.1
2015-Aug-24 07:33N 51°45' E 002°22'11 8.2
2015-Aug-24 06:14N 51°53' E 002°34'6 8.6
2015-Aug-24 05:30N 51°58' E 002°40'55 8.8
2015-Aug-23 23:16N 52°31' E 003°51'6 8.3
2015-Aug-23 22:33N 52°31' E 004°01'8 7.7
2015-Aug-23 21:33N 52°31' E 004°14'8 8.4
2015-Aug-23 20:33N 52°30' E 004°27'6 5.5
2015-Aug-23 19:33N 52°28' E 004°36'1 0.6
2015-Aug-23 18:33N 52°28' E 004°37'1 0.7
2015-Aug-23 17:33N 52°28' E 004°38'5 4.6
2015-Aug-23 16:34N 52°26' E 004°45'5 5.1
2015-Aug-23 15:33N 52°24' E 004°53'2 2.3
2015-Aug-23 14:33N 52°23' E 004°55'0 0.1
2015-Aug-23 13:32N 52°23' E 004°56'0 0.0
2015-Aug-23 12:32N 52°23' E 004°56'0 0.0
2015-Aug-23 11:32N 52°23' E 004°56'0 0.0
2015-Aug-23 10:32N 52°23' E 004°56'0 0.0
2015-Aug-23 09:32N 52°23' E 004°56'0 0.0
2015-Aug-23 08:30N 52°23' E 004°56'0 0.0
2015-Aug-23 07:30N 52°23' E 004°56'0 0.0
2015-Aug-23 06:33N 52°23' E 004°56'0 0.0
2015-Aug-23 05:32N 52°23' E 004°56'0 0.0
2015-Aug-23 04:29N 52°23' E 004°56'0 0.0
2015-Aug-23 03:32N 52°23' E 004°56'0 0.0
2015-Aug-23 02:32N 52°23' E 004°56'0 0.0
2015-Aug-23 01:32N 52°23' E 004°56'0 0.0
2015-Aug-23 00:32N 52°23' E 004°56'0 0.0
2015-Aug-22 23:32N 52°23' E 004°56'0 0.0
2015-Aug-22 22:32N 52°23' E 004°56'0 0.0
2015-Aug-22 21:32N 52°23' E 004°56'0 0.0
2015-Aug-22 20:32N 52°23' E 004°56'0 0.0
2015-Aug-22 19:32N 52°23' E 004°56'0 0.0
2015-Aug-22 18:32N 52°23' E 004°56'0 0.0
2015-Aug-22 17:32N 52°23' E 004°56'0 0.0
2015-Aug-22 16:32N 52°23' E 004°56'0 0.0
2015-Aug-22 15:29N 52°23' E 004°56'0 0.0
2015-Aug-22 14:32N 52°23' E 004°56'0 0.0
2015-Aug-22 13:32N 52°23' E 004°56'0 0.0
2015-Aug-22 12:32N 52°23' E 004°56'0 0.0
2015-Aug-22 11:29N 52°23' E 004°56'0 0.0
2015-Aug-22 10:32N 52°23' E 004°56'0 0.0
2015-Aug-22 09:32N 52°23' E 004°56'0 0.0
2015-Aug-22 08:32N 52°23' E 004°56'0 0.0
2015-Aug-22 07:32N 52°23' E 004°56'0 0.0
2015-Aug-22 06:31N 52°23' E 004°56'0 0.0
2015-Aug-22 05:31N 52°23' E 004°56'0 0.0
2015-Aug-22 04:31N 52°23' E 004°56'0 0.0
2015-Aug-22 03:31N 52°23' E 004°56'0 0.0
2015-Aug-22 02:31N 52°23' E 004°56'0 0.0
2015-Aug-22 01:31N 52°23' E 004°56'0 0.0
2015-Aug-22 00:31N 52°23' E 004°56'0 0.0
2015-Aug-21 23:31N 52°23' E 004°56'0 0.0
2015-Aug-21 22:31N 52°23' E 004°56'0 0.0
2015-Aug-21 21:31N 52°23' E 004°56'0 0.0
2015-Aug-21 20:31N 52°23' E 004°56'0 0.0
2015-Aug-21 19:31N 52°23' E 004°56'0 0.0
2015-Aug-21 18:33N 52°23' E 004°56'0 0.0
2015-Aug-21 17:33N 52°23' E 004°56'0 0.0
2015-Aug-21 16:33N 52°23' E 004°56'0 0.0
2015-Aug-21 15:33N 52°23' E 004°56'0 0.0
2015-Aug-21 14:33N 52°23' E 004°56'0 0.0
2015-Aug-21 13:30N 52°23' E 004°56'0 0.0
2015-Aug-21 12:33N 52°23' E 004°56'0 0.0
2015-Aug-21 11:33N 52°23' E 004°56'0 0.0
2015-Aug-21 10:33N 52°23' E 004°56'0 0.0
2015-Aug-21 09:31N 52°23' E 004°56'0 0.0
2015-Aug-21 08:33N 52°23' E 004°56'0 0.0
2015-Aug-21 07:34N 52°23' E 004°56'0 0.0
2015-Aug-21 06:34N 52°23' E 004°56'0 0.0
2015-Aug-21 05:33N 52°23' E 004°56'0 0.0
2015-Aug-21 04:33N 52°23' E 004°56'0 0.0
2015-Aug-21 03:33N 52°23' E 004°56'0 0.0
2015-Aug-21 02:34N 52°23' E 004°56'0 0.0
2015-Aug-21 01:33N 52°23' E 004°56'0 0.0
2015-Aug-21 00:34N 52°23' E 004°56'0 0.0
2015-Aug-20 23:33N 52°23' E 004°56'0 0.0
2015-Aug-20 22:33N 52°23' E 004°56'0 0.0
2015-Aug-20 21:34N 52°23' E 004°56'0 0.0
2015-Aug-20 20:34N 52°23' E 004°56'0 0.0
2015-Aug-20 19:34N 52°23' E 004°56'0 0.0
2015-Aug-20 18:33N 52°23' E 004°56'0 0.0
2015-Aug-20 17:33N 52°23' E 004°56'0 0.0
2015-Aug-20 16:34N 52°23' E 004°56'0 0.0
2015-Aug-20 15:34N 52°23' E 004°56'0 0.0
2015-Aug-20 14:34N 52°23' E 004°56'0 0.0
2015-Aug-20 13:34N 52°23' E 004°56'0 0.0
2015-Aug-20 12:34N 52°23' E 004°56'0 0.0
2015-Aug-20 11:34N 52°23' E 004°56'0 0.0
2015-Aug-20 10:33N 52°23' E 004°56'0 0.0
2015-Aug-20 09:33N 52°23' E 004°56'0 0.0
2015-Aug-20 08:33N 52°23' E 004°56'0 0.0
2015-Aug-20 07:34N 52°23' E 004°56'0 0.0
2015-Aug-20 06:34N 52°23' E 004°56'0 0.0
2015-Aug-20 05:34N 52°23' E 004°56'0 0.0
2015-Aug-20 04:34N 52°23' E 004°56'0 0.0
2015-Aug-20 03:34N 52°23' E 004°56'0 0.0
2015-Aug-20 02:34N 52°23' E 004°56'0 0.0
2015-Aug-20 01:34N 52°23' E 004°56'0 0.0
2015-Aug-20 00:34N 52°23' E 004°56'0 0.0
2015-Aug-19 23:34N 52°23' E 004°56'0 0.0
2015-Aug-19 22:31N 52°23' E 004°56'0 0.0
2015-Aug-19 21:34N 52°23' E 004°56'0 0.0
2015-Aug-19 20:34N 52°23' E 004°56'0 0.0
2015-Aug-19 19:30N 52°23' E 004°56'0 0.0
2015-Aug-19 18:34N 52°23' E 004°56'0 0.0
2015-Aug-19 17:33N 52°23' E 004°56'0 0.0
2015-Aug-19 16:34N 52°23' E 004°56'0 0.0
2015-Aug-19 15:34N 52°23' E 004°56'2 2.0
2015-Aug-19 14:33N 52°24' E 004°53'3 3.4
2015-Aug-19 13:33N 52°25' E 004°48'4 3.6
2015-Aug-19 12:33N 52°26' E 004°42'3 3.0
2015-Aug-19 11:33N 52°28' E 004°38'1 1.2
2015-Aug-19 10:33N 52°28' E 004°36'1 0.7
2015-Aug-19 09:33N 52°28' E 004°35'0 0.2
2015-Aug-19 08:33N 52°28' E 004°35'0 0.0
2015-Aug-19 07:33N 52°28' E 004°35'0 0.0
2015-Aug-19 06:33N 52°28' E 004°35'0 0.0
2015-Aug-19 05:30N 52°28' E 004°35'0 0.0
2015-Aug-19 04:30N 52°28' E 004°35'0 0.0
2015-Aug-19 03:33N 52°28' E 004°35'0 0.0
2015-Aug-19 02:33N 52°28' E 004°35'0 0.0
2015-Aug-19 01:33N 52°28' E 004°35'0 0.0
2015-Aug-19 00:33N 52°28' E 004°35'0 0.0
2015-Aug-18 23:33N 52°28' E 004°35'0 0.0
2015-Aug-18 22:33N 52°28' E 004°35'0 0.0
2015-Aug-18 21:33N 52°28' E 004°35'0 0.0
2015-Aug-18 20:33N 52°28' E 004°35'0 0.0
2015-Aug-18 19:33N 52°28' E 004°35'0 0.0
2015-Aug-18 18:33N 52°28' E 004°35'0 0.0
2015-Aug-18 17:32N 52°28' E 004°35'0 0.0
2015-Aug-18 16:32N 52°28' E 004°35'3 3.0
2015-Aug-18 15:34N 52°28' E 004°30'8 8.0
2015-Aug-18 14:34N 52°28' E 004°17'6 6.0
2015-Aug-18 13:32N 52°28' E 004°07'0 0.1
2015-Aug-18 12:33N 52°28' E 004°07'0 0.1
2015-Aug-18 11:27N 52°28' E 004°07'0 0.0
2015-Aug-18 10:33N 52°28' E 004°07'0 0.0
2015-Aug-18 09:33N 52°28' E 004°07'0 0.0
2015-Aug-18 08:30N 52°28' E 004°07'0 0.0
2015-Aug-18 07:33N 52°28' E 004°07'0 0.0
2015-Aug-18 06:33N 52°28' E 004°07'0 0.0
2015-Aug-18 05:33N 52°28' E 004°07'0 0.0
2015-Aug-18 04:33N 52°28' E 004°07'0 0.0
2015-Aug-18 04:09N 52°28' E 004°07'0 0.0
2015-Aug-18 03:33N 52°28' E 004°07'0 0.1
2015-Aug-18 02:33N 52°28' E 004°07'0 0.0
2015-Aug-18 01:33N 52°28' E 004°07'0 0.0
2015-Aug-18 00:33N 52°28' E 004°07'0 0.0
2015-Aug-17 23:33N 52°27' E 004°07'1 0.8
2015-Aug-17 22:33N 52°28' E 004°08'1010.0
2015-Aug-17 21:33N 52°38' E 004°04'1010.3
2015-Aug-17 20:33N 52°48' E 003°59'9 8.7
2015-Aug-17 19:33N 52°56' E 004°01'8 7.7
2015-Aug-17 18:33N 53°03' E 004°07'6 6.2
2015-Aug-17 17:33N 53°06' E 004°16'5 4.7
2015-Aug-17 16:28N 53°09' E 004°23'12 5.9
2015-Aug-17 14:26N 53°20' E 004°31'7 7.9
2015-Aug-17 13:30N 53°27' E 004°35'9 9.7
2015-Aug-17 12:33N 53°31' E 004°49'8 8.1
2015-Aug-17 11:33N 53°33' E 005°02'6 6.0
2015-Aug-17 10:33N 53°36' E 005°12'7 7.2
2015-Aug-17 09:32N 53°38' E 005°23'5 5.1
2015-Aug-17 08:33N 53°40' E 005°31'5 5.3
2015-Aug-17 07:33N 53°41' E 005°40'6 5.7
2015-Aug-17 06:33N 53°43' E 005°49'8 7.8
2015-Aug-17 05:30N 53°46' E 006°02'42 8.5
2015-Aug-17 00:33N 53°57' E 007°11'8 7.6
2015-Aug-16 23:33N 53°58' E 007°23'7 7.3
2015-Aug-16 22:33N 53°60' E 007°35'6 5.5
2015-Aug-16 21:32N 53°56' E 007°43'5 5.6
2015-Aug-16 20:33N 53°52' E 007°50'6 6.3
2015-Aug-16 19:33N 53°51' E 008°00'7 6.9
2015-Aug-16 18:33N 53°47' E 008°09'8 8.4
2015-Aug-16 17:33N 53°42' E 008°20'10 9.8
2015-Aug-16 16:34N 53°35' E 008°32'2 2.3
2015-Aug-16 15:33N 53°33' E 008°34'0 0.0
2015-Aug-16 14:33N 53°33' E 008°34'0 0.0
2015-Aug-16 13:30N 53°33' E 008°34'0 0.0
2015-Aug-16 12:33N 53°33' E 008°34'0 0.0
2015-Aug-16 11:30N 53°33' E 008°34'0 0.0
2015-Aug-16 10:30N 53°33' E 008°34'0 0.0
2015-Aug-16 09:33N 53°33' E 008°34'0 0.0
2015-Aug-16 08:33N 53°33' E 008°34'0 0.0
2015-Aug-16 07:33N 53°33' E 008°34'0 0.0
2015-Aug-16 06:33N 53°33' E 008°34'0 0.0
2015-Aug-16 05:33N 53°33' E 008°34'0 0.0
2015-Aug-16 04:33N 53°33' E 008°34'0 0.0
2015-Aug-16 03:33N 53°33' E 008°34'0 0.0
2015-Aug-16 02:33N 53°33' E 008°34'0 0.0
2015-Aug-16 01:33N 53°33' E 008°34'0 0.0
2015-Aug-16 00:33N 53°33' E 008°34'0 0.0
2015-Aug-15 23:33N 53°33' E 008°34'0 0.0
2015-Aug-15 22:33N 53°33' E 008°34'0 0.0
2015-Aug-15 21:33N 53°33' E 008°34'0 0.0
2015-Aug-15 20:30N 53°33' E 008°34'  

Dump ship's entire track history